sensor_id;sensor_type;location;lat;lon;timestamp;pressure;altitude;pressure_sealevel;temperature;humidity
10706;BME280;5404;42.656;23.336;2023-06-22T00:01:16;95358.41;;;18.49;100.00
10706;BME280;5404;42.656;23.336;2023-06-22T00:03:42;95353.00;;;18.49;100.00
10706;BME280;5404;42.656;23.336;2023-06-22T00:06:07;95356.16;;;18.51;100.00
10706;BME280;5404;42.656;23.336;2023-06-22T00:08:33;95353.00;;;18.49;100.00
10706;BME280;5404;42.656;23.336;2023-06-22T00:10:58;95351.78;;;18.46;100.00
10706;BME280;5404;42.656;23.336;2023-06-22T00:13:24;95348.28;;;18.46;100.00
10706;BME280;5404;42.656;23.336;2023-06-22T00:15:49;95347.94;;;18.47;100.00
10706;BME280;5404;42.656;23.336;2023-06-22T00:18:14;95352.88;;;18.45;100.00
10706;BME280;5404;42.656;23.336;2023-06-22T00:20:41;95355.28;;;18.47;100.00
10706;BME280;5404;42.656;23.336;2023-06-22T00:23:07;95347.19;;;18.47;100.00
10706;BME280;5404;42.656;23.336;2023-06-22T00:25:37;95343.69;;;18.46;100.00
10706;BME280;5404;42.656;23.336;2023-06-22T00:28:03;95339.59;;;18.40;100.00
10706;BME280;5404;42.656;23.336;2023-06-22T00:30:30;95330.09;;;18.34;100.00
10706;BME280;5404;42.656;23.336;2023-06-22T00:32:56;95326.59;;;18.34;100.00
10706;BME280;5404;42.656;23.336;2023-06-22T00:35:22;95343.59;;;18.34;100.00
10706;BME280;5404;42.656;23.336;2023-06-22T00:37:47;95337.47;;;18.25;100.00
10706;BME280;5404;42.656;23.336;2023-06-22T00:40:13;95335.63;;;18.17;100.00
10706;BME280;5404;42.656;23.336;2023-06-22T00:42:40;95339.44;;;18.16;100.00
10706;BME280;5404;42.656;23.336;2023-06-22T00:45:06;95342.94;;;18.17;100.00
10706;BME280;5404;42.656;23.336;2023-06-22T00:47:34;95337.41;;;18.13;100.00
10706;BME280;5404;42.656;23.336;2023-06-22T00:49:59;95343.59;;;18.14;100.00
10706;BME280;5404;42.656;23.336;2023-06-22T00:52:26;95347.09;;;18.14;100.00
10706;BME280;5404;42.656;23.336;2023-06-22T00:54:56;95349.66;;;18.11;100.00
10706;BME280;5404;42.656;23.336;2023-06-22T00:57:22;95350.47;;;18.03;100.00
10706;BME280;5404;42.656;23.336;2023-06-22T00:59:48;95341.22;;;17.92;100.00
10706;BME280;5404;42.656;23.336;2023-06-22T01:02:14;95354.78;;;18.04;100.00
10706;BME280;5404;42.656;23.336;2023-06-22T01:04:41;95360.50;;;18.02;100.00
10706;BME280;5404;42.656;23.336;2023-06-22T01:16:20;95363.38;;;17.68;100.00
10706;BME280;5404;42.656;23.336;2023-06-22T01:18:51;95367.19;;;17.67;100.00
10706;BME280;5404;42.656;23.336;2023-06-22T01:21:19;95371.31;;;17.65;100.00
10706;BME280;5404;42.656;23.336;2023-06-22T01:24:16;95371.69;;;17.55;100.00
10706;BME280;5404;42.656;23.336;2023-06-22T01:27:04;95384.69;;;17.53;100.00
10706;BME280;5404;42.656;23.336;2023-06-22T01:29:34;95386.13;;;17.50;100.00
10706;BME280;5404;42.656;23.336;2023-06-22T01:32:03;95384.69;;;17.53;100.00
10706;BME280;5404;42.656;23.336;2023-06-22T01:34:31;95378.53;;;17.52;100.00
10706;BME280;5404;42.656;23.336;2023-06-22T01:36:57;95388.81;;;17.50;100.00
10706;BME280;5404;42.656;23.336;2023-06-22T01:39:24;95383.75;;;17.49;100.00
10706;BME280;5404;42.656;23.336;2023-06-22T01:41:50;95377.91;;;17.47;100.00
10706;BME280;5404;42.656;23.336;2023-06-22T01:44:16;95372.34;;;17.52;100.00
10706;BME280;5404;42.656;23.336;2023-06-22T01:46:42;95383.44;;;17.50;100.00
10706;BME280;5404;42.656;23.336;2023-06-22T01:49:08;95381.06;;;17.49;100.00
10706;BME280;5404;42.656;23.336;2023-06-22T01:51:33;95391.19;;;17.52;100.00
10706;BME280;5404;42.656;23.336;2023-06-22T01:53:59;95385.00;;;17.51;100.00
10706;BME280;5404;42.656;23.336;2023-06-22T01:56:25;95393.56;;;17.53;100.00
10706;BME280;5404;42.656;23.336;2023-06-22T01:59:01;95399.41;;;17.55;100.00
10706;BME280;5404;42.656;23.336;2023-06-22T02:01:35;95399.28;;;17.52;100.00
10706;BME280;5404;42.656;23.336;2023-06-22T02:04:08;95395.00;;;17.51;100.00
10706;BME280;5404;42.656;23.336;2023-06-22T02:06:38;95391.38;;;17.47;100.00
10706;BME280;5404;42.656;23.336;2023-06-22T02:09:09;95405.13;;;17.45;100.00
10706;BME280;5404;42.656;23.336;2023-06-22T02:11:38;95404.03;;;17.46;100.00
10706;BME280;5404;42.656;23.336;2023-06-22T02:14:06;95411.47;;;17.40;100.00
10706;BME280;5404;42.656;23.336;2023-06-22T02:16:32;95401.50;;;17.41;100.00
10706;BME280;5404;42.656;23.336;2023-06-22T02:19:01;95396.63;;;17.34;100.00
10706;BME280;5404;42.656;23.336;2023-06-22T02:21:28;95381.59;;;17.25;100.00
10706;BME280;5404;42.656;23.336;2023-06-22T02:23:55;95385.88;;;17.26;100.00
10706;BME280;5404;42.656;23.336;2023-06-22T02:26:20;95391.25;;;17.26;100.00
10706;BME280;5404;42.656;23.336;2023-06-22T02:28:46;95395.19;;;17.28;100.00
10706;BME280;5404;42.656;23.336;2023-06-22T02:31:11;95397.25;;;17.31;100.00
10706;BME280;5404;42.656;23.336;2023-06-22T02:33:37;95397.44;;;17.26;100.00
10706;BME280;5404;42.656;23.336;2023-06-22T02:36:02;95381.13;;;17.23;100.00
10706;BME280;5404;42.656;23.336;2023-06-22T02:38:34;95389.69;;;17.25;100.00
10706;BME280;5404;42.656;23.336;2023-06-22T02:41:01;95400.47;;;17.25;100.00
10706;BME280;5404;42.656;23.336;2023-06-22T02:43:27;95380.66;;;17.21;100.00
10706;BME280;5404;42.656;23.336;2023-06-22T02:45:53;95399.00;;;17.27;100.00
10706;BME280;5404;42.656;23.336;2023-06-22T02:48:19;95401.84;;;17.31;100.00
10706;BME280;5404;42.656;23.336;2023-06-22T02:50:44;95382.56;;;17.20;100.00
10706;BME280;5404;42.656;23.336;2023-06-22T02:53:09;95401.19;;;17.34;100.00
10706;BME280;5404;42.656;23.336;2023-06-22T02:55:35;95398.50;;;17.34;100.00
10706;BME280;5404;42.656;23.336;2023-06-22T02:58:00;95403.13;;;17.33;100.00
10706;BME280;5404;42.656;23.336;2023-06-22T03:00:29;95406.09;;;17.40;100.00
10706;BME280;5404;42.656;23.336;2023-06-22T03:02:56;95404.84;;;17.38;100.00
10706;BME280;5404;42.656;23.336;2023-06-22T03:05:22;95398.47;;;17.42;100.00
10706;BME280;5404;42.656;23.336;2023-06-22T03:07:48;95402.28;;;17.50;100.00
10706;BME280;5404;42.656;23.336;2023-06-22T03:10:14;95403.38;;;17.58;100.00
10706;BME280;5404;42.656;23.336;2023-06-22T03:12:41;95403.97;;;17.63;100.00
10706;BME280;5404;42.656;23.336;2023-06-22T03:15:09;95415.16;;;17.82;100.00
10706;BME280;5404;42.656;23.336;2023-06-22T03:17:35;95418.13;;;18.18;100.00
10706;BME280;5404;42.656;23.336;2023-06-22T03:20:02;95418.19;;;18.59;100.00
10706;BME280;5404;42.656;23.336;2023-06-22T03:22:40;95409.56;;;18.99;100.00
10706;BME280;5404;42.656;23.336;2023-06-22T03:25:07;95403.91;;;19.45;100.00
10706;BME280;5404;42.656;23.336;2023-06-22T03:27:35;95388.38;;;19.90;100.00
10706;BME280;5404;42.656;23.336;2023-06-22T03:30:01;95371.22;;;20.34;100.00
10706;BME280;5404;42.656;23.336;2023-06-22T03:32:26;95357.63;;;20.86;100.00
10706;BME280;5404;42.656;23.336;2023-06-22T03:34:53;95343.84;;;20.91;100.00
10706;BME280;5404;42.656;23.336;2023-06-22T03:37:18;95342.66;;;20.76;100.00
10706;BME280;5404;42.656;23.336;2023-06-22T03:39:44;95348.56;;;20.66;100.00
10706;BME280;5404;42.656;23.336;2023-06-22T03:42:10;95350.50;;;20.54;100.00
10706;BME280;5404;42.656;23.336;2023-06-22T03:44:35;95357.13;;;20.29;100.00
10706;BME280;5404;42.656;23.336;2023-06-22T03:47:04;95361.44;;;20.18;100.00
10706;BME280;5404;42.656;23.336;2023-06-22T03:49:29;95361.63;;;20.13;100.00
10706;BME280;5404;42.656;23.336;2023-06-22T03:51:55;95334.06;;;19.71;100.00
10706;BME280;5404;42.656;23.336;2023-06-22T03:54:21;95385.56;;;19.87;100.00
10706;BME280;5404;42.656;23.336;2023-06-22T03:56:46;95390.31;;;19.90;100.00
10706;BME280;5404;42.656;23.336;2023-06-22T03:59:11;95396.59;;;19.82;100.00
10706;BME280;5404;42.656;23.336;2023-06-22T04:01:37;95388.38;;;19.78;100.00
10706;BME280;5404;42.656;23.336;2023-06-22T04:04:02;95396.06;;;19.76;100.00
10706;BME280;5404;42.656;23.336;2023-06-22T04:06:28;95400.09;;;19.70;100.00
10706;BME280;5404;42.656;23.336;2023-06-22T04:08:53;95402.56;;;19.63;100.00
10706;BME280;5404;42.656;23.336;2023-06-22T04:11:19;95385.22;;;19.52;100.00
10706;BME280;5404;42.656;23.336;2023-06-22T04:13:44;95388.59;;;19.61;100.00
10706;BME280;5404;42.656;23.336;2023-06-22T04:16:10;95380.25;;;19.66;100.00
10706;BME280;5404;42.656;23.336;2023-06-22T04:18:36;95379.72;;;19.73;100.00
10706;BME280;5404;42.656;23.336;2023-06-22T04:21:02;95367.06;;;19.77;100.00
10706;BME280;5404;42.656;23.336;2023-06-22T04:23:27;95367.06;;;19.77;100.00
10706;BME280;5404;42.656;23.336;2023-06-22T04:25:53;95356.59;;;19.63;100.00
10706;BME280;5404;42.656;23.336;2023-06-22T04:28:18;95339.28;;;19.52;100.00
10706;BME280;5404;42.656;23.336;2023-06-22T04:30:44;95347.56;;;19.35;100.00
10706;BME280;5404;42.656;23.336;2023-06-22T04:33:15;95351.28;;;19.30;100.00
10706;BME280;5404;42.656;23.336;2023-06-22T04:35:41;95349.59;;;19.38;100.00
10706;BME280;5404;42.656;23.336;2023-06-22T04:38:07;95355.03;;;19.50;100.00
10706;BME280;5404;42.656;23.336;2023-06-22T04:40:33;95354.59;;;19.72;100.00
10706;BME280;5404;42.656;23.336;2023-06-22T04:42:59;95353.22;;;19.90;100.00
10706;BME280;5404;42.656;23.336;2023-06-22T04:45:28;95348.25;;;20.04;100.00
10706;BME280;5404;42.656;23.336;2023-06-22T04:47:54;95352.72;;;20.24;100.00
10706;BME280;5404;42.656;23.336;2023-06-22T04:50:19;95343.94;;;20.39;100.00
10706;BME280;5404;42.656;23.336;2023-06-22T04:52:47;95345.66;;;20.59;100.00
10706;BME280;5404;42.656;23.336;2023-06-22T04:55:13;95347.53;;;20.71;100.00
10706;BME280;5404;42.656;23.336;2023-06-22T04:57:44;95355.25;;;20.84;100.00
10706;BME280;5404;42.656;23.336;2023-06-22T05:00:18;95355.19;;;20.97;100.00
10706;BME280;5404;42.656;23.336;2023-06-22T05:02:45;95347.63;;;21.02;100.00
10706;BME280;5404;42.656;23.336;2023-06-22T05:05:12;95351.34;;;21.10;100.00
10706;BME280;5404;42.656;23.336;2023-06-22T05:07:45;95355.53;;;21.23;100.00
10706;BME280;5404;42.656;23.336;2023-06-22T05:10:13;95346.78;;;21.29;100.00
10706;BME280;5404;42.656;23.336;2023-06-22T05:12:40;95339.91;;;21.32;100.00
10706;BME280;5404;42.656;23.336;2023-06-22T05:15:08;95339.38;;;21.42;100.00
10706;BME280;5404;42.656;23.336;2023-06-22T05:17:34;95332.84;;;21.43;100.00
10706;BME280;5404;42.656;23.336;2023-06-22T05:20:00;95329.88;;;21.48;100.00
10706;BME280;5404;42.656;23.336;2023-06-22T05:22:26;95334.66;;;21.54;100.00
10706;BME280;5404;42.656;23.336;2023-06-22T05:24:51;95327.22;;;21.67;100.00
10706;BME280;5404;42.656;23.336;2023-06-22T05:27:17;95328.28;;;21.78;100.00
10706;BME280;5404;42.656;23.336;2023-06-22T05:29:42;95334.59;;;21.82;100.00
10706;BME280;5404;42.656;23.336;2023-06-22T05:32:08;95334.31;;;21.87;100.00
10706;BME280;5404;42.656;23.336;2023-06-22T05:34:34;95334.31;;;21.87;100.00
10706;BME280;5404;42.656;23.336;2023-06-22T05:36:59;95355.47;;;21.97;100.00
10706;BME280;5404;42.656;23.336;2023-06-22T05:39:25;95350.50;;;21.99;100.00
10706;BME280;5404;42.656;23.336;2023-06-22T05:41:51;95352.84;;;22.01;100.00
10706;BME280;5404;42.656;23.336;2023-06-22T05:44:17;95352.22;;;22.07;100.00
10706;BME280;5404;42.656;23.336;2023-06-22T05:46:44;95366.75;;;22.15;100.00
10706;BME280;5404;42.656;23.336;2023-06-22T05:49:12;95361.13;;;22.23;100.00
10706;BME280;5404;42.656;23.336;2023-06-22T05:51:37;95362.31;;;22.26;100.00
10706;BME280;5404;42.656;23.336;2023-06-22T05:54:03;95364.16;;;22.37;100.00
10706;BME280;5404;42.656;23.336;2023-06-22T05:56:28;95369.31;;;22.42;100.00
10706;BME280;5404;42.656;23.336;2023-06-22T05:58:54;95368.75;;;22.52;100.00
10706;BME280;5404;42.656;23.336;2023-06-22T06:01:19;95366.03;;;22.52;100.00
10706;BME280;5404;42.656;23.336;2023-06-22T06:03:45;95361.25;;;22.46;100.00
10706;BME280;5404;42.656;23.336;2023-06-22T06:06:11;95359.69;;;22.29;100.00
10706;BME280;5404;42.656;23.336;2023-06-22T06:08:37;95348.06;;;22.29;100.00
10706;BME280;5404;42.656;23.336;2023-06-22T06:11:03;95348.44;;;22.27;100.00
10706;BME280;5404;42.656;23.336;2023-06-22T06:13:29;95349.94;;;22.44;100.00
10706;BME280;5404;42.656;23.336;2023-06-22T06:15:54;95342.88;;;22.39;100.00
10706;BME280;5404;42.656;23.336;2023-06-22T06:18:20;95347.03;;;22.18;100.00
10706;BME280;5404;42.656;23.336;2023-06-22T06:20:46;95343.31;;;22.26;100.00
10706;BME280;5404;42.656;23.336;2023-06-22T06:23:11;95338.13;;;22.36;100.00
10706;BME280;5404;42.656;23.336;2023-06-22T06:25:37;95334.44;;;22.44;100.00
10706;BME280;5404;42.656;23.336;2023-06-22T06:28:02;95331.41;;;22.65;100.00
10706;BME280;5404;42.656;23.336;2023-06-22T06:30:28;95327.03;;;22.79;100.00
10706;BME280;5404;42.656;23.336;2023-06-22T06:32:54;95325.47;;;22.78;100.00
10706;BME280;5404;42.656;23.336;2023-06-22T06:35:19;95335.44;;;22.93;100.00
10706;BME280;5404;42.656;23.336;2023-06-22T06:37:48;95332.03;;;23.19;100.00
10706;BME280;5404;42.656;23.336;2023-06-22T06:40:15;95322.78;;;23.43;100.00
10706;BME280;5404;42.656;23.336;2023-06-22T06:42:42;95314.19;;;23.63;100.00
10706;BME280;5404;42.656;23.336;2023-06-22T06:45:15;95306.09;;;23.93;100.00
10706;BME280;5404;42.656;23.336;2023-06-22T06:47:41;95300.72;;;24.23;100.00
10706;BME280;5404;42.656;23.336;2023-06-22T06:50:08;95293.22;;;24.46;100.00
10706;BME280;5404;42.656;23.336;2023-06-22T06:52:34;95294.25;;;24.64;100.00
10706;BME280;5404;42.656;23.336;2023-06-22T06:55:00;95289.50;;;24.87;100.00
10706;BME280;5404;42.656;23.336;2023-06-22T06:57:26;95273.28;;;25.04;100.00
10706;BME280;5404;42.656;23.336;2023-06-22T06:59:58;95280.16;;;25.28;100.00
10706;BME280;5404;42.656;23.336;2023-06-22T07:02:25;95282.72;;;25.47;100.00
10706;BME280;5404;42.656;23.336;2023-06-22T07:04:53;95281.66;;;25.62;100.00
10706;BME280;5404;42.656;23.336;2023-06-22T07:07:21;95273.16;;;25.74;100.00
10706;BME280;5404;42.656;23.336;2023-06-22T07:09:47;95274.28;;;25.70;100.00
10706;BME280;5404;42.656;23.336;2023-06-22T07:12:12;95276.69;;;25.78;100.00
10706;BME280;5404;42.656;23.336;2023-06-22T07:14:38;95281.03;;;25.83;100.00
10706;BME280;5404;42.656;23.336;2023-06-22T07:17:03;95276.34;;;25.83;100.00
10706;BME280;5404;42.656;23.336;2023-06-22T07:19:32;95278.72;;;25.85;100.00
10706;BME280;5404;42.656;23.336;2023-06-22T07:21:57;95281.81;;;25.87;100.00
10706;BME280;5404;42.656;23.336;2023-06-22T07:24:24;95278.69;;;25.81;100.00
10706;BME280;5404;42.656;23.336;2023-06-22T07:26:50;95282.22;;;25.89;100.00
10706;BME280;5404;42.656;23.336;2023-06-22T07:29:20;95272.16;;;26.00;100.00
10706;BME280;5404;42.656;23.336;2023-06-22T07:31:46;95286.75;;;26.21;100.00
10706;BME280;5404;42.656;23.336;2023-06-22T07:34:13;95271.97;;;26.26;100.00
10706;BME280;5404;42.656;23.336;2023-06-22T07:36:38;95278.19;;;26.26;100.00
10706;BME280;5404;42.656;23.336;2023-06-22T07:39:04;95275.88;;;26.28;100.00
10706;BME280;5404;42.656;23.336;2023-06-22T07:41:30;95282.19;;;26.39;100.00
10706;BME280;5404;42.656;23.336;2023-06-22T07:43:56;95279.88;;;26.45;100.00
10706;BME280;5404;42.656;23.336;2023-06-22T07:46:22;95287.34;;;26.55;100.00
10706;BME280;5404;42.656;23.336;2023-06-22T07:48:48;95277.59;;;26.61;100.00
10706;BME280;5404;42.656;23.336;2023-06-22T07:51:13;95277.66;;;26.75;100.00
10706;BME280;5404;42.656;23.336;2023-06-22T07:53:40;95265.19;;;26.74;100.00
10706;BME280;5404;42.656;23.336;2023-06-22T07:56:06;95276.94;;;26.96;100.00
10706;BME280;5404;42.656;23.336;2023-06-22T07:58:34;95275.03;;;27.21;100.00
10706;BME280;5404;42.656;23.336;2023-06-22T08:01:00;95272.34;;;27.38;100.00
10706;BME280;5404;42.656;23.336;2023-06-22T08:03:25;95273.53;;;27.73;100.00
10706;BME280;5404;42.656;23.336;2023-06-22T08:05:51;95264.94;;;28.06;100.00
10706;BME280;5404;42.656;23.336;2023-06-22T08:08:16;95251.56;;;28.29;100.00
10706;BME280;5404;42.656;23.336;2023-06-22T08:10:42;95256.25;;;28.28;100.00
10706;BME280;5404;42.656;23.336;2023-06-22T08:13:08;95261.75;;;28.28;100.00
10706;BME280;5404;42.656;23.336;2023-06-22T08:15:34;95252.69;;;28.42;100.00
10706;BME280;5404;42.656;23.336;2023-06-22T08:17:59;95249.91;;;28.63;100.00
10706;BME280;5404;42.656;23.336;2023-06-22T08:20:26;95250.25;;;28.72;100.00
10706;BME280;5404;42.656;23.336;2023-06-22T08:22:53;95245.81;;;28.99;100.00
10706;BME280;5404;42.656;23.336;2023-06-22T08:25:19;95240.66;;;29.08;100.00
10706;BME280;5404;42.656;23.336;2023-06-22T08:27:45;95247.38;;;28.97;100.00
10706;BME280;5404;42.656;23.336;2023-06-22T08:30:12;95235.16;;;29.08;100.00
10706;BME280;5404;42.656;23.336;2023-06-22T08:32:38;95221.09;;;29.03;100.00
10706;BME280;5404;42.656;23.336;2023-06-22T08:35:04;95233.88;;;29.30;100.00
10706;BME280;5404;42.656;23.336;2023-06-22T08:37:31;95235.34;;;29.42;100.00
10706;BME280;5404;42.656;23.336;2023-06-22T08:40:00;95248.97;;;29.56;100.00
10706;BME280;5404;42.656;23.336;2023-06-22T08:42:36;95241.72;;;29.80;100.00
10706;BME280;5404;42.656;23.336;2023-06-22T08:45:02;95250.63;;;29.94;100.00
10706;BME280;5404;42.656;23.336;2023-06-22T08:47:28;95246.13;;;30.11;100.00
10706;BME280;5404;42.656;23.336;2023-06-22T08:49:53;95250.03;;;30.13;100.00
10706;BME280;5404;42.656;23.336;2023-06-22T08:52:19;95213.69;;;29.95;100.00
10706;BME280;5404;42.656;23.336;2023-06-22T08:54:46;95245.94;;;29.88;100.00
10706;BME280;5404;42.656;23.336;2023-06-22T08:57:11;95242.44;;;29.87;100.00
10706;BME280;5404;42.656;23.336;2023-06-22T08:59:36;95242.44;;;29.87;100.00
10706;BME280;5404;42.656;23.336;2023-06-22T09:02:02;95235.00;;;29.84;100.00
10706;BME280;5404;42.656;23.336;2023-06-22T09:04:27;95235.28;;;29.97;100.00
10706;BME280;5404;42.656;23.336;2023-06-22T09:06:53;95229.22;;;30.83;100.00
10706;BME280;5404;42.656;23.336;2023-06-22T09:09:21;95221.59;;;32.17;100.00
10706;BME280;5404;42.656;23.336;2023-06-22T09:11:47;95211.00;;;33.29;100.00
10706;BME280;5404;42.656;23.336;2023-06-22T09:14:12;95222.50;;;34.37;100.00
10706;BME280;5404;42.656;23.336;2023-06-22T09:16:38;95224.56;;;35.31;92.28
10706;BME280;5404;42.656;23.336;2023-06-22T09:19:03;95226.38;;;36.09;92.04
10706;BME280;5404;42.656;23.336;2023-06-22T09:21:29;95230.00;;;36.19;80.39
10706;BME280;5404;42.656;23.336;2023-06-22T09:23:54;95225.28;;;36.41;85.11
10706;BME280;5404;42.656;23.336;2023-06-22T09:26:21;95227.63;;;36.43;82.38
10706;BME280;5404;42.656;23.336;2023-06-22T09:28:47;95236.94;;;36.70;78.25
10706;BME280;5404;42.656;23.336;2023-06-22T09:31:13;95233.63;;;36.63;80.09
10706;BME280;5404;42.656;23.336;2023-06-22T09:33:40;95243.50;;;36.29;79.04
10706;BME280;5404;42.656;23.336;2023-06-22T09:36:06;95237.41;;;35.75;80.50
10706;BME280;5404;42.656;23.336;2023-06-22T09:38:38;95239.28;;;35.66;82.25
10706;BME280;5404;42.656;23.336;2023-06-22T09:41:04;95218.44;;;35.74;83.72
10706;BME280;5404;42.656;23.336;2023-06-22T09:43:31;95240.28;;;36.31;80.05
10706;BME280;5404;42.656;23.336;2023-06-22T09:45:57;95235.13;;;36.20;80.51
10706;BME280;5404;42.656;23.336;2023-06-22T09:48:22;95239.06;;;36.88;76.00
10706;BME280;5404;42.656;23.336;2023-06-22T09:50:48;95225.28;;;37.06;73.59
10706;BME280;5404;42.656;23.336;2023-06-22T09:53:13;95226.13;;;36.72;74.01
10706;BME280;5404;42.656;23.336;2023-06-22T09:55:38;95221.53;;;36.22;76.68
10706;BME280;5404;42.656;23.336;2023-06-22T09:58:04;95218.31;;;36.37;77.88
10706;BME280;5404;42.656;23.336;2023-06-22T10:00:29;95212.66;;;36.62;78.30
10706;BME280;5404;42.656;23.336;2023-06-22T10:02:55;95214.13;;;36.97;77.56
10706;BME280;5404;42.656;23.336;2023-06-22T10:05:40;95208.31;;;37.83;68.93
10706;BME280;5404;42.656;23.336;2023-06-22T10:08:06;95209.56;;;37.91;64.26
10706;BME280;5404;42.656;23.336;2023-06-22T10:10:33;95193.03;;;37.79;66.04
10706;BME280;5404;42.656;23.336;2023-06-22T10:13:04;95201.78;;;37.68;69.30
10706;BME280;5404;42.656;23.336;2023-06-22T10:15:32;95207.13;;;37.54;68.73
10706;BME280;5404;42.656;23.336;2023-06-22T10:17:58;95210.00;;;37.01;75.81
10706;BME280;5404;42.656;23.336;2023-06-22T10:20:23;95204.69;;;36.94;74.85
10706;BME280;5404;42.656;23.336;2023-06-22T10:22:51;95203.19;;;37.33;72.21
10706;BME280;5404;42.656;23.336;2023-06-22T10:25:16;95204.50;;;37.50;66.30
10706;BME280;5404;42.656;23.336;2023-06-22T10:27:43;95203.47;;;37.26;68.45
10706;BME280;5404;42.656;23.336;2023-06-22T10:30:10;95208.97;;;37.17;62.10
10706;BME280;5404;42.656;23.336;2023-06-22T10:32:38;95201.22;;;36.60;64.94
10706;BME280;5404;42.656;23.336;2023-06-22T10:35:04;95197.72;;;36.68;69.18
10706;BME280;5404;42.656;23.336;2023-06-22T10:37:29;95188.88;;;37.13;67.07
10706;BME280;5404;42.656;23.336;2023-06-22T10:39:55;95191.22;;;37.14;66.57
10706;BME280;5404;42.656;23.336;2023-06-22T10:42:21;95192.41;;;36.83;64.61
10706;BME280;5404;42.656;23.336;2023-06-22T10:44:46;95177.78;;;36.39;63.53
10706;BME280;5404;42.656;23.336;2023-06-22T10:47:12;95198.72;;;36.18;66.79
10706;BME280;5404;42.656;23.336;2023-06-22T10:49:40;95193.03;;;36.22;67.84
10706;BME280;5404;42.656;23.336;2023-06-22T10:52:07;95180.47;;;36.52;66.53
10706;BME280;5404;42.656;23.336;2023-06-22T10:54:34;95182.50;;;36.51;67.93
10706;BME280;5404;42.656;23.336;2023-06-22T10:57:01;95182.41;;;36.42;70.35
10706;BME280;5404;42.656;23.336;2023-06-22T10:59:27;95180.44;;;36.30;70.32
10706;BME280;5404;42.656;23.336;2023-06-22T11:01:54;95179.84;;;36.13;70.66
10706;BME280;5404;42.656;23.336;2023-06-22T11:04:20;95188.22;;;34.75;76.89
10706;BME280;5404;42.656;23.336;2023-06-22T11:06:45;95179.00;;;34.66;77.46
10706;BME280;5404;42.656;23.336;2023-06-22T11:09:11;95167.94;;;34.66;82.32
10706;BME280;5404;42.656;23.336;2023-06-22T11:11:36;95171.78;;;35.22;77.34
10706;BME280;5404;42.656;23.336;2023-06-22T11:14:02;95174.88;;;34.99;77.00
10706;BME280;5404;42.656;23.336;2023-06-22T11:16:27;95173.34;;;34.98;77.71
10706;BME280;5404;42.656;23.336;2023-06-22T11:18:53;95177.13;;;34.50;79.34
10706;BME280;5404;42.656;23.336;2023-06-22T11:21:18;95177.25;;;33.86;88.14
10706;BME280;5404;42.656;23.336;2023-06-22T11:23:45;95157.44;;;32.71;91.86
10706;BME280;5404;42.656;23.336;2023-06-22T11:26:10;95156.50;;;32.23;93.84
10706;BME280;5404;42.656;23.336;2023-06-22T11:28:36;95150.56;;;32.44;93.43
10706;BME280;5404;42.656;23.336;2023-06-22T11:31:01;95156.56;;;32.58;93.01
10706;BME280;5404;42.656;23.336;2023-06-22T11:33:27;95147.09;;;32.95;93.37
10706;BME280;5404;42.656;23.336;2023-06-22T11:35:53;95145.81;;;32.80;96.16
10706;BME280;5404;42.656;23.336;2023-06-22T11:38:21;95149.00;;;32.43;94.72
10706;BME280;5404;42.656;23.336;2023-06-22T11:40:47;95150.91;;;32.46;96.36
10706;BME280;5404;42.656;23.336;2023-06-22T11:43:12;95146.56;;;32.25;96.84
10706;BME280;5404;42.656;23.336;2023-06-22T11:45:40;95138.94;;;31.93;97.51
10706;BME280;5404;42.656;23.336;2023-06-22T11:48:07;95140.72;;;32.04;93.48
10706;BME280;5404;42.656;23.336;2023-06-22T11:50:32;95140.72;;;32.04;97.76
10706;BME280;5404;42.656;23.336;2023-06-22T11:53:02;95131.94;;;31.89;99.07
10706;BME280;5404;42.656;23.336;2023-06-22T11:55:28;95131.72;;;32.00;97.17
10706;BME280;5404;42.656;23.336;2023-06-22T11:57:55;95135.44;;;32.13;98.90
10706;BME280;5404;42.656;23.336;2023-06-22T12:00:25;95127.34;;;32.02;96.78
10706;BME280;5404;42.656;23.336;2023-06-22T12:02:51;95127.50;;;31.95;96.83
10706;BME280;5404;42.656;23.336;2023-06-22T12:05:20;95140.72;;;31.80;99.55
10706;BME280;5404;42.656;23.336;2023-06-22T12:07:46;95133.31;;;31.77;100.00
10706;BME280;5404;42.656;23.336;2023-06-22T12:10:12;95142.06;;;31.96;100.00
10706;BME280;5404;42.656;23.336;2023-06-22T12:12:38;95132.09;;;32.02;98.88
10706;BME280;5404;42.656;23.336;2023-06-22T12:15:03;95150.16;;;32.03;99.98
10706;BME280;5404;42.656;23.336;2023-06-22T12:17:29;95149.97;;;31.93;92.35
10706;BME280;5404;42.656;23.336;2023-06-22T12:19:55;95115.97;;;31.57;96.82
10706;BME280;5404;42.656;23.336;2023-06-22T12:22:21;95149.84;;;31.54;100.00
10706;BME280;5404;42.656;23.336;2023-06-22T12:24:47;95135.44;;;30.97;100.00
10706;BME280;5404;42.656;23.336;2023-06-22T12:27:12;95160.31;;;30.90;100.00
10706;BME280;5404;42.656;23.336;2023-06-22T12:29:41;95157.72;;;30.49;100.00
10706;BME280;5404;42.656;23.336;2023-06-22T12:32:07;95165.91;;;30.19;100.00
10706;BME280;5404;42.656;23.336;2023-06-22T12:34:33;95177.38;;;29.77;100.00
10706;BME280;5404;42.656;23.336;2023-06-22T12:36:58;95190.34;;;29.29;100.00
10706;BME280;5404;42.656;23.336;2023-06-22T12:39:25;95201.22;;;28.81;100.00
10706;BME280;5404;42.656;23.336;2023-06-22T12:41:50;95193.59;;;28.30;100.00
10706;BME280;5404;42.656;23.336;2023-06-22T12:44:17;95201.94;;;27.92;100.00
10706;BME280;5404;42.656;23.336;2023-06-22T12:46:42;95203.53;;;27.50;100.00
10706;BME280;5404;42.656;23.336;2023-06-22T12:49:08;95211.25;;;26.78;100.00
10706;BME280;5404;42.656;23.336;2023-06-22T12:51:33;95225.88;;;26.17;100.00
10706;BME280;5404;42.656;23.336;2023-06-22T12:53:59;95243.94;;;25.82;100.00
10706;BME280;5404;42.656;23.336;2023-06-22T12:56:24;95253.25;;;25.70;100.00
10706;BME280;5404;42.656;23.336;2023-06-22T12:58:50;95250.38;;;25.53;100.00